Time;durP1;ratioP1;P1;durP2;ratioP2;P2;SDS_P1;SDS_P2;PMS_P1;PMS_P2;Temp;Humidity;BMP_temperature;BMP_pressure;BME280_temperature;BME280_humidity;BME280_pressure;Samples;Min_cycle;Max_cycle;Signal;HPM_P1;HPM_P2
2023/09/20 00:02:12;;;;;;;;;;;;;;;23.07;50.71;101015.25;7398675;19;1730;-39
2023/09/20 00:04:40;;;;;;;;;;;;;;;23.08;50.70;101033.09;7395481;19;1849;-39
2023/09/20 00:07:09;;;;;;;;;;;;;;;23.03;50.72;101031.72;7397126;19;1829;-39
2023/09/20 00:09:38;;;;;;;;;;;;;;;23.07;51.10;101028.72;7398363;19;1485;-39
2023/09/20 00:12:06;;;;;;;;;;;;;;;23.07;50.58;101031.41;7399072;19;1506;-39
2023/09/20 00:14:35;;;;;;;;;;;;;;;23.09;50.99;101037.50;7398876;19;1972;-39
2023/09/20 00:17:06;;;;;;;;;;;;;;;23.16;50.47;101031.34;7398100;19;1408;-39
2023/09/20 00:19:34;;;;;;;;;;;;;;;23.12;49.87;101034.47;7398708;19;1916;-39
2023/09/20 00:22:02;;;;;;;;;;;;;;;23.11;50.16;101020.16;7397665;19;1980;-39
2023/09/20 00:24:33;;;;;;;;;;;;;;;23.05;50.02;101033.44;7397976;19;1818;-39
2023/09/20 00:27:02;;;;;;;;;;;;;;;23.06;50.33;101029.72;7396136;19;1845;-39
2023/09/20 00:29:31;;;;;;;;;;;;;;;22.97;49.97;101009.91;7397496;19;1750;-49
2023/09/20 00:31:59;;;;;;;;;;;;;;;22.96;50.05;101030.63;7397775;19;1615;-39
2023/09/20 00:34:31;;;;;;;;;;;;;;;22.98;50.09;101017.00;7395540;19;1964;-39
2023/09/20 00:37:00;;;;;;;;;;;;;;;22.98;50.04;101012.44;7394658;19;1884;-39
2023/09/20 00:39:28;;;;;;;;;;;;;;;22.95;50.08;101017.28;7397593;19;1617;-39
2023/09/20 00:41:56;;;;;;;;;;;;;;;23.03;50.45;101025.47;7397052;19;2002;-39
2023/09/20 00:44:25;;;;;;;;;;;;;;;23.03;50.30;101009.31;7396202;19;1641;-46
2023/09/20 00:46:54;;;;;;;;;;;;;;;23.03;49.65;101022.78;7395977;19;1839;-39
2023/09/20 00:49:23;;;;;;;;;;;;;;;22.98;49.76;101019.69;7396165;19;1834;-39
2023/09/20 00:51:55;;;;;;;;;;;;;;;22.94;50.00;101027.25;7397114;19;1829;-39
2023/09/20 00:54:24;;;;;;;;;;;;;;;22.94;50.12;101027.25;7396313;19;1885;-39
2023/09/20 00:56:52;;;;;;;;;;;;;;;22.94;49.67;101005.66;7381485;19;2234;-39
2023/09/20 00:59:21;;;;;;;;;;;;;;;23.00;50.28;101018.53;7396180;19;1682;-39
2023/09/20 01:01:50;;;;;;;;;;;;;;;23.08;50.09;101022.31;7395937;19;1336;-39
2023/09/20 01:04:18;;;;;;;;;;;;;;;23.14;49.76;101030.66;7395956;19;1577;-39
2023/09/20 01:06:49;;;;;;;;;;;;;;;23.18;49.71;101034.72;7394881;19;1853;-39
2023/09/20 01:09:22;;;;;;;;;;;;;;;23.16;49.48;101027.81;7395736;19;1572;-39
2023/09/20 01:11:50;;;;;;;;;;;;;;;23.07;49.10;101034.13;7395647;19;1572;-39
2023/09/20 01:14:19;;;;;;;;;;;;;;;22.94;49.26;101029.94;7394117;19;1221;-39
2023/09/20 01:16:48;;;;;;;;;;;;;;;22.89;49.35;101034.09;7395901;19;1866;-39
2023/09/20 01:19:16;;;;;;;;;;;;;;;22.87;49.23;101036.94;7395454;19;1873;-39
2023/09/20 01:21:47;;;;;;;;;;;;;;;22.90;49.07;101039.34;7396743;19;1675;-39
2023/09/20 01:24:17;;;;;;;;;;;;;;;22.88;49.42;101011.69;7395638;19;1756;-39
2023/09/20 01:26:47;;;;;;;;;;;;;;;22.85;49.56;101033.56;7394517;19;1863;-39
2023/09/20 01:29:15;;;;;;;;;;;;;;;22.89;49.88;101018.75;7395339;19;1751;-39
2023/09/20 01:31:44;;;;;;;;;;;;;;;22.95;49.72;101017.28;7395883;19;1544;-39
2023/09/20 01:34:12;;;;;;;;;;;;;;;22.93;49.53;101022.00;7393756;19;2443;-39
2023/09/20 01:36:40;;;;;;;;;;;;;;;22.88;49.50;101022.47;7395530;19;1537;-39
2023/09/20 01:39:12;;;;;;;;;;;;;;;22.89;49.27;101017.91;7394723;19;1832;-39
2023/09/20 01:41:40;;;;;;;;;;;;;;;22.85;49.26;101003.91;7395822;19;1568;-39
2023/09/20 01:44:10;;;;;;;;;;;;;;;22.85;49.32;101001.19;7395032;19;1842;-39
2023/09/20 01:46:41;;;;;;;;;;;;;;;22.85;49.34;101003.91;7394308;19;1866;-39
2023/09/20 01:49:10;;;;;;;;;;;;;;;22.83;49.75;100987.88;7393601;19;1794;-39
2023/09/20 01:51:39;;;;;;;;;;;;;;;22.88;49.83;100997.34;7393142;19;2123;-39
2023/09/20 01:54:07;;;;;;;;;;;;;;;22.84;49.67;100986.88;7394287;19;1579;-39
2023/09/20 01:56:38;;;;;;;;;;;;;;;22.93;49.68;100987.78;7395604;19;1751;-39
2023/09/20 01:59:08;;;;;;;;;;;;;;;23.00;49.36;100996.13;7383311;19;2115;-39
2023/09/20 02:01:37;;;;;;;;;;;;;;;22.96;48.99;101000.09;7392815;19;1442;-39
2023/09/20 02:04:06;;;;;;;;;;;;;;;22.96;49.13;100990.19;7394328;19;1461;-39
2023/09/20 02:06:35;;;;;;;;;;;;;;;22.91;48.54;100995.19;7392934;19;1859;-39
2023/09/20 02:09:04;;;;;;;;;;;;;;;22.86;48.51;101008.31;7395264;19;1430;-39
2023/09/20 02:11:32;;;;;;;;;;;;;;;22.86;48.73;100991.25;7394348;19;1897;-39
2023/09/20 02:14:03;;;;;;;;;;;;;;;22.78;48.84;100997.41;7393510;19;1452;-39
2023/09/20 02:16:32;;;;;;;;;;;;;;;22.86;49.21;101004.72;7392953;19;1529;-39
2023/09/20 02:19:00;;;;;;;;;;;;;;;22.87;48.66;100996.50;7391431;19;1514;-39
2023/09/20 02:21:29;;;;;;;;;;;;;;;22.79;48.80;100991.03;7392968;19;1577;-39
2023/09/20 02:23:58;;;;;;;;;;;;;;;22.82;49.07;100991.59;7394350;19;1630;-39
2023/09/20 02:26:26;;;;;;;;;;;;;;;22.88;49.04;101006.28;7392375;19;1869;-39
2023/09/20 02:28:54;;;;;;;;;;;;;;;22.91;49.33;100989.78;7397348;19;1556;-39
2023/09/20 02:31:25;;;;;;;;;;;;;;;22.88;48.81;100968.53;7400495;19;1523;-39
2023/09/20 02:33:55;;;;;;;;;;;;;;;22.85;48.39;100974.25;7400707;19;1506;-39
2023/09/20 02:36:23;;;;;;;;;;;;;;;22.84;48.58;100961.78;7399715;19;1701;-39
2023/09/20 02:38:51;;;;;;;;;;;;;;;22.93;49.27;100962.66;7400456;19;1609;-40
2023/09/20 02:41:19;;;;;;;;;;;;;;;22.96;49.19;100968.59;7399098;19;1406;-39
2023/09/20 02:43:52;;;;;;;;;;;;;;;23.00;49.27;100978.06;7396571;19;1650;-39
2023/09/20 02:46:20;;;;;;;;;;;;;;;23.02;49.44;100986.88;7399990;19;1860;-39
2023/09/20 02:48:52;;;;;;;;;;;;;;;23.00;49.53;100980.78;7399494;19;1517;-39
2023/09/20 02:51:23;;;;;;;;;;;;;;;22.96;49.08;100986.63;7400642;19;1436;-40
2023/09/20 02:53:52;;;;;;;;;;;;;;;22.88;49.11;100995.50;7400239;19;1148;-39
2023/09/20 02:56:21;;;;;;;;;;;;;;;22.82;49.12;100994.28;7402296;19;2234;-39
2023/09/20 02:58:49;;;;;;;;;;;;;;;22.83;49.42;100987.88;7386306;19;1706;-39
2023/09/20 03:01:18;;;;;;;;;;;;;;;22.89;49.77;100990.97;7400555;19;1503;-40
2023/09/20 03:03:46;;;;;;;;;;;;;;;22.91;49.70;101003.28;7401215;19;1500;-39
2023/09/20 03:06:17;;;;;;;;;;;;;;;22.95;49.58;100995.72;7399979;19;1857;-39
2023/09/20 03:08:46;;;;;;;;;;;;;;;22.96;49.65;101025.25;7400302;19;1318;-39
2023/09/20 03:11:21;;;;;;;;;;;;;;;22.92;49.20;101007.69;7400809;19;1790;-40
2023/09/20 03:13:49;;;;;;;;;;;;;;;22.83;49.18;101006.75;7401460;19;1583;-40
2023/09/20 03:16:18;;;;;;;;;;;;;;;22.74;49.48;101023.88;7400898;19;1823;-39
2023/09/20 03:18:49;;;;;;;;;;;;;;;22.80;49.02;101008.88;7400980;19;1769;-39
2023/09/20 03:21:21;;;;;;;;;;;;;;;22.77;49.24;100998.44;7399920;19;1797;-44
2023/09/20 03:23:50;;;;;;;;;;;;;;;22.75;49.44;101000.44;7400398;19;1769;-40
2023/09/20 03:26:18;;;;;;;;;;;;;;;22.76;49.44;101000.28;7400345;19;1855;-39
2023/09/20 03:28:48;;;;;;;;;;;;;;;22.77;49.46;100998.44;7399298;19;1712;-39
2023/09/20 03:31:16;;;;;;;;;;;;;;;22.76;49.23;100985.94;7398733;19;1207;-39
2023/09/20 03:33:45;;;;;;;;;;;;;;;22.74;49.30;100987.94;7396293;19;1512;-39
2023/09/20 03:36:15;;;;;;;;;;;;;;;22.83;49.60;100992.41;7397854;19;1440;-39
2023/09/20 03:38:47;;;;;;;;;;;;;;;22.84;49.92;100981.47;7399530;19;1460;-39
2023/09/20 03:41:15;;;;;;;;;;;;;;;22.94;49.68;100992.19;7397156;19;1616;-39
2023/09/20 03:43:44;;;;;;;;;;;;;;;23.02;49.30;100989.59;7397924;19;1491;-39
2023/09/20 03:46:13;;;;;;;;;;;;;;;23.02;49.08;100997.69;7398302;19;1846;-39
2023/09/20 03:48:42;;;;;;;;;;;;;;;23.00;49.35;100985.31;7399137;19;1472;-39
2023/09/20 03:51:15;;;;;;;;;;;;;;;22.98;49.03;100985.47;7398446;19;1570;-39
2023/09/20 03:53:46;;;;;;;;;;;;;;;23.00;48.63;100982.63;7399250;19;1384;-39
2023/09/20 03:56:14;;;;;;;;;;;;;;;22.95;49.15;100975.00;7398899;19;1817;-40
2023/09/20 03:58:42;;;;;;;;;;;;;;;22.98;49.15;100985.47;7383626;19;1521;-39
2023/09/20 04:01:11;;;;;;;;;;;;;;;22.94;49.14;100980.53;7397276;19;1528;-39
2023/09/20 04:03:40;;;;;;;;;;;;;;;22.88;49.31;100984.72;7398881;19;1746;-40
2023/09/20 04:06:08;;;;;;;;;;;;;;;22.86;49.19;100981.34;7397074;19;2576;-39
2023/09/20 04:08:36;;;;;;;;;;;;;;;22.87;49.60;100990.25;7395142;19;1947;-39
2023/09/20 04:11:07;;;;;;;;;;;;;;;22.97;49.63;100989.16;7393117;19;1472;-42
2023/09/20 04:13:36;;;;;;;;;;;;;;;23.05;49.24;101001.06;7396131;19;1449;-39
2023/09/20 04:16:06;;;;;;;;;;;;;;;23.00;48.78;100988.88;7390118;19;1447;-39
2023/09/20 04:18:34;;;;;;;;;;;;;;;23.12;48.50;100994.00;7394795;19;1551;-40
2023/09/20 04:21:02;;;;;;;;;;;;;;;23.20;48.11;100989.53;7281346;19;14262;-39
2023/09/20 04:23:32;;;;;;;;;;;;;;;23.17;48.05;100986.31;7398078;19;1847;-39
2023/09/20 04:26:00;;;;;;;;;;;;;;;22.96;48.29;100975.81;7397924;19;1561;-39
2023/09/20 04:28:31;;;;;;;;;;;;;;;22.95;48.92;100983.06;7394840;19;1839;-40
2023/09/20 04:30:59;;;;;;;;;;;;;;;23.11;48.33;100997.75;7397916;19;1484;-39
2023/09/20 04:33:28;;;;;;;;;;;;;;;23.06;49.24;101002.75;7397455;19;1386;-39
2023/09/20 04:35:58;;;;;;;;;;;;;;;22.97;50.06;101008.03;7396920;19;1554;-39
2023/09/20 04:38:26;;;;;;;;;;;;;;;23.17;49.79;100991.72;7397034;19;1500;-39
2023/09/20 04:40:56;;;;;;;;;;;;;;;23.09;49.17;101024.03;7392848;19;1480;-40
2023/09/20 04:43:24;;;;;;;;;;;;;;;23.07;48.19;101005.28;7394539;19;1579;-38
2023/09/20 04:45:56;;;;;;;;;;;;;;;23.14;47.63;101000.97;7392603;19;1628;-37
2023/09/20 04:48:24;;;;;;;;;;;;;;;23.20;47.69;101021.91;7391327;19;1834;-38
2023/09/20 04:50:54;;;;;;;;;;;;;;;23.20;47.58;101004.91;7389578;19;2453;-38
2023/09/20 04:53:23;;;;;;;;;;;;;;;23.26;47.52;101015.06;7394260;19;1442;-38
2023/09/20 04:55:51;;;;;;;;;;;;;;;23.30;47.20;101004.75;7393781;19;1598;-38
2023/09/20 04:58:20;;;;;;;;;;;;;;;23.23;47.31;101000.00;7380102;19;1508;-38
2023/09/20 05:00:49;;;;;;;;;;;;;;;23.31;47.59;101012.72;7395950;19;1472;-38
2023/09/20 05:03:20;;;;;;;;;;;;;;;23.17;47.87;101021.38;7393786;19;1454;-38
2023/09/20 05:05:50;;;;;;;;;;;;;;;22.90;47.89;101011.50;7397015;19;1189;-38
2023/09/20 05:08:19;;;;;;;;;;;;;;;22.67;48.26;101030.03;7394758;19;1851;-37
2023/09/20 05:10:47;;;;;;;;;;;;;;;22.53;48.16;101018.75;7391700;19;1765;-38
2023/09/20 05:13:16;;;;;;;;;;;;;;;21.92;49.49;101016.66;7397768;19;1786;-40
2023/09/20 05:15:45;;;;;;;;;;;;;;;21.33;50.02;101030.28;7395755;19;2484;-40
2023/09/20 05:18:13;;;;;;;;;;;;;;;21.03;50.67;101039.38;7396584;19;1679;-40
2023/09/20 05:20:45;;;;;;;;;;;;;;;20.93;50.78;101046.59;7397610;19;1727;-40
2023/09/20 05:23:13;;;;;;;;;;;;;;;20.92;50.98;101048.44;7396798;19;1678;-40
2023/09/20 05:25:42;;;;;;;;;;;;;;;20.80;51.58;101039.66;7396886;19;1481;-40
2023/09/20 05:28:10;;;;;;;;;;;;;;;21.19;50.89;101052.25;7387599;19;1861;-40
2023/09/20 05:30:38;;;;;;;;;;;;;;;21.68;49.84;101050.34;7395582;19;1528;-40
2023/09/20 05:33:07;;;;;;;;;;;;;;;22.02;49.16;101037.19;7395008;19;1824;-40
2023/09/20 05:35:35;;;;;;;;;;;;;;;22.11;48.93;101034.59;7395090;19;1478;-40
2023/09/20 05:38:06;;;;;;;;;;;;;;;22.19;48.65;101049.00;7394904;19;1539;-40
2023/09/20 05:40:35;;;;;;;;;;;;;;;22.33;48.69;101050.38;7395352;19;1572;-40
2023/09/20 05:43:04;;;;;;;;;;;;;;;22.37;48.47;101034.75;7396302;19;1524;-40
2023/09/20 05:45:32;;;;;;;;;;;;;;;22.41;48.48;101046.94;7396381;19;1516;-40
2023/09/20 05:48:01;;;;;;;;;;;;;;;22.40;48.53;101061.38;7393304;19;1850;-40
2023/09/20 05:50:33;;;;;;;;;;;;;;;22.46;48.68;101065.31;7395649;19;1650;-40
2023/09/20 05:53:01;;;;;;;;;;;;;;;22.43;48.63;101045.78;7393650;19;1603;-41
2023/09/20 05:55:33;;;;;;;;;;;;;;;22.51;48.65;101057.66;7394647;19;1547;-40
2023/09/20 05:58:02;;;;;;;;;;;;;;;22.59;48.63;101045.09;7374388;19;1536;-42
2023/09/20 06:00:31;;;;;;;;;;;;;;;22.73;48.22;101064.44;6872504;19;10000915;-40
2023/09/20 06:02:59;;;;;;;;;;;;;;;22.75;48.29;101047.13;7385021;19;1561;-40
2023/09/20 06:05:28;;;;;;;;;;;;;;;22.73;48.50;101046.41;7393701;19;1742;-40
2023/09/20 13:10:38;;;;;;;;;;;;;;;23.86;52.42;100919.72;7271338;19;3027234;-37
2023/09/20 13:13:08;;;;;;;;;;;;;;;23.87;52.47;100934.06;7431711;19;1800;-37
2023/09/20 13:15:39;;;;;;;;;;;;;;;23.88;52.31;100927.69;7430651;19;1727;-37
2023/09/20 13:18:10;;;;;;;;;;;;;;;23.87;52.27;100931.38;7433091;19;1868;-37
2023/09/20 13:20:41;;;;;;;;;;;;;;;23.87;52.06;100915.16;7427728;19;1939;-37
2023/09/20 13:23:09;;;;;;;;;;;;;;;23.87;52.19;100929.50;7428192;19;1705;-43
2023/09/20 13:25:40;;;;;;;;;;;;;;;24.06;51.74;100919.44;7428740;19;1730;-43
2023/09/20 13:28:08;;;;;;;;;;;;;;;23.71;51.93;100867.31;7430491;19;1481;-44
2023/09/20 13:30:40;;;;;;;;;;;;;;;23.89;52.41;100923.94;7428728;19;1597;-44
2023/09/20 13:33:10;;;;;;;;;;;;;;;23.95;52.01;100902.50;7430764;19;1880;-45
2023/09/20 13:35:39;;;;;;;;;;;;;;;23.93;52.43;100926.16;7430373;19;1703;-45
2023/09/20 13:38:07;;;;;;;;;;;;;;;23.95;52.09;100907.09;7430270;19;1839;-44
2023/09/20 13:40:38;;;;;;;;;;;;;;;23.93;52.36;100903.69;7427483;19;1722;-44
2023/09/20 13:43:12;;;;;;;;;;;;;;;23.85;52.58;100888.31;7429853;19;1899;-45
2023/09/20 13:45:41;;;;;;;;;;;;;;;23.85;52.13;100884.78;7428315;19;1782;-44
2023/09/20 13:48:11;;;;;;;;;;;;;;;24.05;52.15;100879.94;7429591;19;1508;-44
2023/09/20 13:50:40;;;;;;;;;;;;;;;24.28;51.43;100885.53;7428692;19;1628;-44
2023/09/20 13:53:08;;;;;;;;;;;;;;;24.32;51.45;100879.63;7429297;19;1564;-44
2023/09/20 13:55:37;;;;;;;;;;;;;;;24.19;51.92;100877.44;7430614;19;1801;-45
2023/09/20 13:58:07;;;;;;;;;;;;;;;24.27;51.85;100884.66;7431879;19;1857;-44
2023/09/20 14:00:38;;;;;;;;;;;;;;;24.37;51.88;100885.38;7429475;19;1745;-43
2023/09/20 14:03:06;;;;;;;;;;;;;;;24.26;51.76;100893.81;7427353;19;1833;-45
2023/09/20 14:05:35;;;;;;;;;;;;;;;24.20;51.72;100872.88;7426497;19;1813;-45
2023/09/20 14:08:04;;;;;;;;;;;;;;;24.23;51.70;100877.91;7428510;19;1493;-43
2023/09/20 14:10:34;;;;;;;;;;;;;;;24.31;52.43;100890.59;7391770;19;1670;-47
2023/09/20 14:13:02;;;;;;;;;;;;;;;24.34;52.22;100885.69;7400255;19;1489;-47
2023/09/20 14:15:30;;;;;;;;;;;;;;;24.32;51.85;100887.72;7400348;19;1386;-47
2023/09/20 14:18:01;;;;;;;;;;;;;;;24.42;51.59;100882.16;7397742;19;1395;-45
2023/09/20 14:20:30;;;;;;;;;;;;;;;24.29;52.45;100871.00;7389590;19;1857;-44
2023/09/20 14:22:59;;;;;;;;;;;;;;;24.31;52.03;100863.56;7395740;19;1464;-45
2023/09/20 14:25:28;;;;;;;;;;;;;;;24.26;52.54;100877.59;7396961;19;1426;-45
2023/09/20 14:27:57;;;;;;;;;;;;;;;24.16;52.95;100872.34;7398110;19;990;-44
2023/09/20 14:30:25;;;;;;;;;;;;;;;24.08;53.26;100863.41;7396307;19;1864;-44
2023/09/20 14:32:55;;;;;;;;;;;;;;;24.04;53.43;100876.38;7396191;19;1952;-43
2023/09/20 14:35:26;;;;;;;;;;;;;;;24.01;53.67;100879.41;7396572;19;1780;-44
2023/09/20 14:37:55;;;;;;;;;;;;;;;24.04;53.58;100876.38;7396723;19;1504;-44
2023/09/20 14:40:26;;;;;;;;;;;;;;;24.01;53.50;100852.38;7394093;19;1845;-44
2023/09/20 14:42:55;;;;;;;;;;;;;;;24.00;53.65;100867.75;7395442;19;1727;-45
2023/09/20 14:45:26;;;;;;;;;;;;;;;24.02;53.62;100864.91;7396086;19;1724;-43
2023/09/20 14:47:54;;;;;;;;;;;;;;;23.98;53.56;100856.28;7396117;19;1429;-44
2023/09/20 14:50:23;;;;;;;;;;;;;;;23.97;53.53;100849.22;7395774;19;1722;-44
2023/09/20 14:52:54;;;;;;;;;;;;;;;23.97;53.52;100857.31;7398215;19;1684;-44
2023/09/20 14:55:25;;;;;;;;;;;;;;;23.99;53.51;100870.63;7400806;19;1774;-44
2023/09/20 14:57:55;;;;;;;;;;;;;;;23.99;53.46;100859.81;7399332;19;1524;-45
2023/09/20 15:00:24;;;;;;;;;;;;;;;24.10;52.70;100850.56;7396246;19;1936;-43
2023/09/20 15:02:53;;;;;;;;;;;;;;;24.10;54.01;100883.81;7400248;19;1684;-44
2023/09/20 15:05:21;;;;;;;;;;;;;;;24.15;52.42;100867.97;7399561;19;1717;-44
2023/09/20 15:07:53;;;;;;;;;;;;;;;24.13;52.40;100856.50;7399884;19;1560;-43
2023/09/20 15:10:25;;;;;;;;;;;;;;;24.06;52.08;100860.84;7384330;19;1852;-45
2023/09/20 15:12:57;;;;;;;;;;;;;;;24.09;51.92;100863.22;7399444;19;1505;-45
2023/09/20 15:15:25;;;;;;;;;;;;;;;24.09;52.80;100857.81;7400134;19;1768;-44
2023/09/20 15:17:53;;;;;;;;;;;;;;;24.18;54.02;100855.97;7398919;19;1866;-44
2023/09/20 15:20:22;;;;;;;;;;;;;;;24.33;53.53;100872.34;7397812;19;1849;-45
2023/09/20 15:22:50;;;;;;;;;;;;;;;24.18;55.38;100862.22;7396760;19;1830;-47
2023/09/20 15:25:19;;;;;;;;;;;;;;;24.27;54.82;100870.31;7400355;19;1765;-45
2023/09/20 15:27:50;;;;;;;;;;;;;;;24.34;55.20;100868.66;7397848;19;1805;-45
2023/09/20 15:30:19;;;;;;;;;;;;;;;24.25;55.19;100853.44;7395207;19;1831;-45
2023/09/20 15:32:47;;;;;;;;;;;;;;;24.30;54.11;100872.72;7392244;19;1848;-45
2023/09/20 15:35:15;;;;;;;;;;;;;;;24.28;53.92;100869.31;7394984;19;1835;-43
2023/09/20 15:37:45;;;;;;;;;;;;;;;24.31;53.70;100868.97;7394402;19;1616;-44
2023/09/20 15:40:15;;;;;;;;;;;;;;;24.30;53.33;100878.09;7393181;19;1846;-43
2023/09/20 15:42:44;;;;;;;;;;;;;;;24.25;53.72;100864.25;7395269;19;1666;-44
2023/09/20 15:45:16;;;;;;;;;;;;;;;24.29;53.63;100887.22;7397754;19;1726;-44
2023/09/20 15:47:45;;;;;;;;;;;;;;;24.26;53.61;100855.13;7396866;19;1628;-43
2023/09/20 15:50:13;;;;;;;;;;;;;;;24.27;53.38;100864.91;7398380;19;1536;-43
2023/09/20 15:52:42;;;;;;;;;;;;;;;24.30;53.30;100862.72;7398506;19;1524;-44
2023/09/20 15:55:14;;;;;;;;;;;;;;;24.30;53.11;100875.41;7397937;19;1770;-44
2023/09/20 15:57:42;;;;;;;;;;;;;;;24.29;52.84;100863.75;7399294;19;1147;-44
2023/09/20 16:00:13;;;;;;;;;;;;;;;24.30;52.92;100878.09;7395336;19;1912;-43
2023/09/20 16:02:44;;;;;;;;;;;;;;;24.24;52.93;100862.56;7397397;19;1456;-43
2023/09/20 16:05:13;;;;;;;;;;;;;;;24.24;52.77;100854.47;7397707;19;1733;-44
2023/09/20 16:07:42;;;;;;;;;;;;;;;24.25;53.31;100869.66;7396488;19;1425;-44
2023/09/20 16:10:13;;;;;;;;;;;;;;;24.23;52.99;100869.81;7381299;19;1810;-43
2023/09/20 16:12:42;;;;;;;;;;;;;;;24.26;52.85;100865.94;7397643;19;1409;-45
2023/09/20 16:15:12;;;;;;;;;;;;;;;24.23;52.68;100872.50;7397829;19;1401;-44
2023/09/20 16:17:40;;;;;;;;;;;;;;;24.18;52.26;100864.91;7395462;19;1501;-44
2023/09/20 16:20:13;;;;;;;;;;;;;;;24.17;52.06;100852.44;7395922;19;1847;-44
2023/09/20 16:22:42;;;;;;;;;;;;;;;24.14;52.17;100860.88;7397473;19;1545;-44
2023/09/20 16:25:12;;;;;;;;;;;;;;;24.17;52.29;100873.19;7396339;19;1413;-44
2023/09/20 16:27:40;;;;;;;;;;;;;;;24.08;52.19;100866.09;7397035;19;1730;-44
2023/09/20 16:30:09;;;;;;;;;;;;;;;24.10;52.46;100862.22;7396605;19;1392;-45
2023/09/20 16:32:37;;;;;;;;;;;;;;;24.10;52.72;100873.00;7396583;19;1738;-44
2023/09/20 16:35:09;;;;;;;;;;;;;;;24.08;52.77;100877.75;7396877;19;1488;-43
2023/09/20 16:37:40;;;;;;;;;;;;;;;24.07;52.45;100878.75;7395926;19;1394;-43
2023/09/20 16:40:09;;;;;;;;;;;;;;;24.11;52.64;100880.09;7395590;19;1850;-44
2023/09/20 16:42:37;;;;;;;;;;;;;;;24.02;52.70;100881.13;7395723;19;1718;-44
2023/09/20 16:45:07;;;;;;;;;;;;;;;24.11;52.89;100890.06;7396426;19;1638;-44
2023/09/20 16:47:35;;;;;;;;;;;;;;;24.14;52.80;100895.97;7395981;19;1405;-43
2023/09/20 16:50:04;;;;;;;;;;;;;;;23.91;52.83;100892.22;7395856;19;1822;-43
2023/09/20 16:52:32;;;;;;;;;;;;;;;24.07;52.80;100884.13;7396459;19;1385;-45
2023/09/20 16:55:03;;;;;;;;;;;;;;;24.17;52.22;100897.50;7396725;19;1382;-45
2023/09/20 16:57:32;;;;;;;;;;;;;;;24.12;52.22;100889.91;7397960;19;1480;-43
2023/09/20 17:00:00;;;;;;;;;;;;;;;24.10;52.63;100905.44;7394352;19;1845;-45
2023/09/20 17:02:28;;;;;;;;;;;;;;;24.15;52.39;100907.63;7395930;19;1766;-45
2023/09/20 17:04:57;;;;;;;;;;;;;;;24.11;51.80;100904.41;7394868;19;1610;-45
2023/09/20 17:07:25;;;;;;;;;;;;;;;23.97;52.22;100905.06;7394083;19;1502;-45
2023/09/20 17:09:53;;;;;;;;;;;;;;;24.05;51.37;100910.47;7386388;19;1569;-45
2023/09/20 17:12:24;;;;;;;;;;;;;;;23.90;52.02;100904.03;7381349;19;1727;-45
2023/09/20 17:14:53;;;;;;;;;;;;;;;23.96;51.68;100925.00;7393973;19;1544;-44
2023/09/20 17:17:21;;;;;;;;;;;;;;;23.96;51.66;100909.63;7392592;19;1548;-45
2023/09/20 17:19:50;;;;;;;;;;;;;;;23.92;51.77;100921.78;7389778;19;1859;-44
2023/09/20 17:22:19;;;;;;;;;;;;;;;23.90;51.78;100925.66;7390947;19;1397;-44
2023/09/20 17:24:48;;;;;;;;;;;;;;;23.84;52.21;100913.66;7392159;19;1492;-45
2023/09/20 17:27:16;;;;;;;;;;;;;;;23.82;51.87;100923.78;7392579;19;1799;-44
2023/09/20 17:29:47;;;;;;;;;;;;;;;23.80;51.87;100920.38;7393779;19;1791;-45
2023/09/20 17:32:16;;;;;;;;;;;;;;;23.92;51.83;100920.94;7392497;19;1504;-44
2023/09/20 17:34:44;;;;;;;;;;;;;;;23.90;51.59;100922.97;7391486;19;1464;-45
2023/09/20 17:37:10;;;;;;;;;;;;;;;23.98;51.29;100928.38;7391234;19;1454;-45
2023/09/20 17:39:38;;;;;;;;;;;;;;;24.10;50.91;100948.66;7393335;19;1840;-45
2023/09/20 17:42:07;;;;;;;;;;;;;;;24.02;51.24;100938.69;7394144;19;1666;-43
2023/09/20 17:44:36;;;;;;;;;;;;;;;24.03;51.96;100955.72;7392198;19;1443;-49
2023/09/20 17:47:07;;;;;;;;;;;;;;;24.11;51.16;100966.56;7399711;19;1464;-44
2023/09/20 17:49:38;;;;;;;;;;;;;;;24.06;51.23;100947.31;7400063;19;1450;-45
2023/09/20 17:52:08;;;;;;;;;;;;;;;23.92;52.12;100953.34;7401360;19;1560;-44
2023/09/20 17:54:36;;;;;;;;;;;;;;;24.03;50.99;100955.72;7402352;19;1464;-44
2023/09/20 17:57:07;;;;;;;;;;;;;;;24.10;51.64;100964.03;7397766;19;1864;-44
2023/09/20 17:59:37;;;;;;;;;;;;;;;24.14;51.37;100958.13;7397606;19;1852;-43
2023/09/20 18:02:09;;;;;;;;;;;;;;;24.12;51.49;100957.44;7397163;19;1319;-44
2023/09/20 18:04:39;;;;;;;;;;;;;;;24.16;51.23;100960.69;7399950;19;1597;-44
2023/09/20 18:07:07;;;;;;;;;;;;;;;23.98;51.97;100963.50;7401012;19;1527;-44
2023/09/20 18:09:35;;;;;;;;;;;;;;;24.07;51.17;100967.88;7397433;19;1387;-45
2023/09/20 18:12:04;;;;;;;;;;;;;;;24.27;50.60;100962.22;7383867;19;1646;-44
2023/09/20 18:14:32;;;;;;;;;;;;;;;24.34;50.44;100974.06;7400513;19;1195;-45
2023/09/20 18:17:01;;;;;;;;;;;;;;;24.34;50.49;100976.75;7395941;19;1365;-44
2023/09/20 18:19:30;;;;;;;;;;;;;;;24.31;50.81;100972.53;7400115;19;1847;-44
2023/09/20 18:21:58;;;;;;;;;;;;;;;24.27;50.86;100973.84;7400131;19;1385;-44
2023/09/20 18:24:26;;;;;;;;;;;;;;;24.26;51.18;100982.16;7396692;19;1149;-44
2023/09/20 18:26:57;;;;;;;;;;;;;;;24.29;51.14;100973.69;7394773;19;1701;-45
2023/09/20 18:29:25;;;;;;;;;;;;;;;24.23;51.29;100980.59;7397158;19;1583;-60
2023/09/20 18:31:53;;;;;;;;;;;;;;;23.49;51.00;100880.41;7395257;19;1543;-44
2023/09/20 18:34:22;;;;;;;;;;;;;;;24.13;51.21;100979.91;7397855;19;1737;-44
2023/09/20 18:36:53;;;;;;;;;;;;;;;24.22;50.45;100962.72;7396965;19;1566;-43
2023/09/20 18:39:21;;;;;;;;;;;;;;;24.26;49.63;100969.47;7399842;19;1528;-43
2023/09/20 18:41:50;;;;;;;;;;;;;;;24.27;49.25;100981.13;7395889;19;1895;-44
2023/09/20 18:44:18;;;;;;;;;;;;;;;24.14;49.64;100966.25;7399828;19;1579;-43
2023/09/20 18:46:47;;;;;;;;;;;;;;;24.21;49.58;100986.19;7398227;19;1565;-44
2023/09/20 18:49:15;;;;;;;;;;;;;;;24.11;50.01;100981.94;7396346;19;1404;-44
2023/09/20 18:51:44;;;;;;;;;;;;;;;24.21;50.38;100994.31;7397139;19;1576;-44
2023/09/20 18:54:15;;;;;;;;;;;;;;;24.24;49.43;100986.88;7396810;19;1547;-45
2023/09/20 18:56:43;;;;;;;;;;;;;;;24.30;49.28;100997.03;7396614;19;1559;-44
2023/09/20 18:59:12;;;;;;;;;;;;;;;24.26;49.21;100987.56;7394991;19;1520;-44
2023/09/20 19:01:40;;;;;;;;;;;;;;;24.24;49.24;100997.69;7387110;19;1848;-44
2023/09/20 19:04:08;;;;;;;;;;;;;;;24.20;49.02;100998.00;7395290;19;1513;-44
2023/09/20 19:06:37;;;;;;;;;;;;;;;24.22;49.03;100985.16;7398806;19;1267;-44
2023/09/20 19:09:06;;;;;;;;;;;;;;;24.27;49.17;100997.34;7394578;19;1412;-43
2023/09/20 19:11:37;;;;;;;;;;;;;;;24.25;49.31;100983.16;7380415;19;1607;-44
2023/09/20 19:14:07;;;;;;;;;;;;;;;24.22;49.33;100995.97;7395808;19;1410;-44
2023/09/20 19:16:35;;;;;;;;;;;;;;;24.27;49.25;101000.03;7396096;19;1768;-44
2023/09/20 19:19:06;;;;;;;;;;;;;;;24.12;49.63;101000.69;7395985;19;1612;-44
2023/09/20 19:21:38;;;;;;;;;;;;;;;24.02;49.70;100999.97;7395496;19;1857;-44
2023/09/20 19:24:09;;;;;;;;;;;;;;;24.22;49.00;100998.69;7397978;19;1553;-44
2023/09/20 19:26:40;;;;;;;;;;;;;;;24.21;49.20;101010.50;7396216;19;1368;-44
2023/09/20 19:29:11;;;;;;;;;;;;;;;24.16;49.41;100998.50;7393187;19;1833;-44
2023/09/20 19:31:39;;;;;;;;;;;;;;;24.18;49.22;100993.78;7396477;19;1460;-44
2023/09/20 19:34:11;;;;;;;;;;;;;;;24.16;49.36;100998.50;7395323;19;1553;-44
2023/09/20 19:36:40;;;;;;;;;;;;;;;24.19;49.16;100990.91;7392900;19;1376;-45
2023/09/20 19:39:08;;;;;;;;;;;;;;;24.14;49.03;100987.00;7386263;19;1628;-44
2023/09/20 19:41:37;;;;;;;;;;;;;;;24.20;48.81;100997.16;7393801;19;1857;-44
2023/09/20 19:44:08;;;;;;;;;;;;;;;24.16;48.86;100996.63;7392827;19;1712;-44
2023/09/20 19:46:36;;;;;;;;;;;;;;;24.11;49.31;100990.03;7388819;19;1533;-43
2023/09/20 19:49:05;;;;;;;;;;;;;;;24.11;49.06;100990.88;7392564;19;1817;-44
2023/09/20 19:51:33;;;;;;;;;;;;;;;23.92;49.03;100983.06;7394102;19;1919;-43
2023/09/20 19:54:04;;;;;;;;;;;;;;;24.10;48.81;100991.91;7395505;19;1401;-44
2023/09/20 19:56:36;;;;;;;;;;;;;;;24.10;49.13;100986.50;7384450;19;1295;-44
2023/09/20 19:59:07;;;;;;;;;;;;;;;24.02;49.01;100995.41;7394140;19;1623;-44